createdAt,value
2019-03-31T00:02:30.552Z,54.90
2019-03-31T00:05:01.595Z,54.90
2019-03-31T00:07:33.288Z,55.00
2019-03-31T00:10:03.872Z,55.10
2019-03-31T00:12:35.727Z,55.10
2019-03-31T00:15:08.192Z,55.10
2019-03-31T00:17:40.376Z,55.00
2019-03-31T00:20:12.582Z,55.00
2019-03-31T00:22:44.845Z,55.10
2019-03-31T00:25:17.050Z,55.00
2019-03-31T00:27:48.835Z,55.10
2019-03-31T00:30:19.506Z,55.60
2019-03-31T00:32:51.535Z,54.70
2019-03-31T00:35:23.778Z,54.60
2019-03-31T00:37:55.550Z,54.70
2019-03-31T00:40:26.055Z,54.60
2019-03-31T00:42:59.154Z,54.70
2019-03-31T00:45:31.324Z,54.90
2019-03-31T00:48:03.134Z,54.80
2019-03-31T00:50:33.930Z,54.90
2019-03-31T00:53:05.579Z,54.90
2019-03-31T00:55:35.961Z,54.90
2019-03-31T00:58:07.688Z,55.00
2019-03-31T01:00:57.020Z,55.00
2019-03-31T01:03:32.197Z,55.20
2019-03-31T01:06:04.578Z,55.10
2019-03-31T01:08:36.510Z,54.90
2019-03-31T01:11:23.615Z,54.80
2019-03-31T01:13:56.200Z,55.00
2019-03-31T01:16:29.743Z,54.70
2019-03-31T01:19:01.610Z,54.70
2019-03-31T01:21:33.544Z,54.60
2019-03-31T01:24:04.074Z,54.80
2019-03-31T01:26:35.742Z,54.80
2019-03-31T01:29:06.658Z,54.80
2019-03-31T01:31:49.621Z,54.70
2019-03-31T01:34:12.880Z,54.80
2019-03-31T01:36:45.216Z,54.80
2019-03-31T01:39:17.450Z,54.80
2019-03-31T01:41:49.439Z,55.00
2019-03-31T01:44:20.327Z,54.90
2019-03-31T01:46:52.031Z,54.90
2019-03-31T01:49:25.359Z,54.90
2019-03-31T01:51:57.497Z,54.80
2019-03-31T01:54:29.842Z,55.00
2019-03-31T01:57:02.158Z,55.10
2019-03-31T01:59:34.855Z,55.00
2019-03-31T02:02:08.620Z,55.00
2019-03-31T02:04:41.004Z,55.20
2019-03-31T02:07:12.952Z,55.20
2019-03-31T02:09:44.913Z,55.20
2019-03-31T02:12:17.241Z,55.10
2019-03-31T02:14:49.041Z,55.10
2019-03-31T02:17:19.696Z,55.00
2019-03-31T02:19:51.330Z,54.80
2019-03-31T02:22:21.804Z,55.00
2019-03-31T02:24:53.526Z,55.10
2019-03-31T02:27:25.920Z,55.20
2019-03-31T02:29:57.979Z,55.10
2019-03-31T02:32:29.827Z,54.90
2019-03-31T02:35:02.270Z,55.10
2019-03-31T02:37:34.452Z,55.00
2019-03-31T02:40:07.782Z,54.80
2019-03-31T02:42:39.725Z,54.80
2019-03-31T02:45:12.013Z,55.00
2019-03-31T02:47:43.973Z,54.90
2019-03-31T02:50:31.168Z,55.00
2019-03-31T02:53:03.475Z,54.90
2019-03-31T02:55:36.251Z,54.90
2019-03-31T02:58:08.468Z,55.00
2019-03-31T03:00:40.552Z,55.20
2019-03-31T03:03:14.155Z,55.20
2019-03-31T03:05:46.831Z,55.20
2019-03-31T03:08:21.678Z,55.10
2019-03-31T03:10:54.070Z,55.60
2019-03-31T03:13:28.057Z,54.90
2019-03-31T03:16:20.013Z,55.00
2019-03-31T03:18:52.024Z,54.70
2019-03-31T03:21:25.096Z,55.00
2019-03-31T03:23:57.260Z,54.90
2019-03-31T03:26:29.165Z,55.10
2019-03-31T03:29:01.391Z,55.00
2019-03-31T03:31:33.264Z,55.20
2019-03-31T03:34:05.809Z,55.00
2019-03-31T03:36:37.976Z,54.90
2019-03-31T03:39:10.245Z,55.00
2019-03-31T03:41:42.152Z,55.10
2019-03-31T03:44:12.673Z,55.00
2019-03-31T03:46:44.608Z,54.90
2019-03-31T03:49:16.535Z,54.90
2019-03-31T03:51:48.686Z,55.00
2019-03-31T03:54:20.899Z,54.90
2019-03-31T03:56:53.073Z,54.90
2019-03-31T03:59:24.848Z,54.90
2019-03-31T04:01:55.707Z,54.80
2019-03-31T04:04:27.340Z,54.80
2019-03-31T04:06:59.612Z,54.80
2019-03-31T04:09:31.538Z,54.70
2019-03-31T04:12:03.745Z,54.60
2019-03-31T04:14:35.655Z,54.40
2019-03-31T04:17:07.175Z,54.60
2019-03-31T04:19:39.142Z,54.40
2019-03-31T04:22:11.054Z,54.50
2019-03-31T04:24:41.544Z,54.40
2019-03-31T04:27:13.492Z,54.40
2019-03-31T04:29:45.309Z,54.60
2019-03-31T04:32:17.549Z,54.70
2019-03-31T04:34:49.424Z,54.70
2019-03-31T04:37:19.892Z,54.70
2019-03-31T04:39:51.647Z,54.80
2019-03-31T04:42:23.967Z,54.60
2019-03-31T04:44:55.861Z,54.70
2019-03-31T04:47:26.730Z,54.80
2019-03-31T04:49:58.467Z,54.70
2019-03-31T04:52:30.266Z,54.50
2019-03-31T04:55:02.149Z,54.50
2019-03-31T04:57:34.296Z,54.50
2019-03-31T05:00:06.326Z,54.50
2019-03-31T05:02:38.616Z,54.40
2019-03-31T05:05:10.507Z,54.30
2019-03-31T05:07:41.286Z,54.30
2019-03-31T05:10:14.413Z,54.40
2019-03-31T05:12:46.690Z,54.50
2019-03-31T05:15:18.772Z,54.30
2019-03-31T05:17:50.647Z,54.40
2019-03-31T05:20:21.455Z,54.20
2019-03-31T05:24:06.879Z,54.20
2019-03-31T05:26:39.465Z,55.20
2019-03-31T05:29:12.227Z,54.60
2019-03-31T05:31:44.096Z,54.70
2019-03-31T05:34:19.216Z,54.60
2019-03-31T05:36:50.299Z,54.60
2019-03-31T05:39:22.164Z,54.80
2019-03-31T05:41:53.026Z,54.60
2019-03-31T05:44:24.945Z,54.40
2019-03-31T05:46:56.778Z,54.30
2019-03-31T05:49:28.941Z,54.30
2019-03-31T05:52:01.961Z,54.30
2019-03-31T05:54:35.152Z,54.30
2019-03-31T05:57:07.218Z,54.20
2019-03-31T05:59:40.145Z,54.10
2019-03-31T06:02:12.751Z,54.20
2019-03-31T06:04:46.025Z,54.30
2019-03-31T06:07:17.897Z,54.50
2019-03-31T06:09:49.775Z,54.10
2019-03-31T06:12:20.613Z,53.90
2019-03-31T06:14:52.573Z,53.90
2019-03-31T06:17:24.890Z,53.70
2019-03-31T06:19:57.134Z,53.80
2019-03-31T06:22:29.224Z,53.50
2019-03-31T06:25:01.148Z,53.70
2019-03-31T06:27:32.156Z,54.00
2019-03-31T06:30:04.025Z,53.30
2019-03-31T06:32:36.301Z,53.60
2019-03-31T06:35:08.607Z,53.30
2019-03-31T06:37:40.535Z,53.20
2019-03-31T06:40:12.444Z,53.30
2019-03-31T06:42:44.362Z,53.90
2019-03-31T06:45:15.618Z,53.50
2019-03-31T06:47:47.234Z,53.60
2019-03-31T06:50:17.799Z,52.90
2019-03-31T06:52:49.711Z,53.60
2019-03-31T06:55:22.930Z,54.30
2019-03-31T06:57:54.792Z,52.90
2019-03-31T07:00:25.347Z,53.70
2019-03-31T07:02:57.338Z,54.60
2019-03-31T07:05:29.837Z,54.30
2019-03-31T07:08:01.901Z,54.20
2019-03-31T07:10:33.772Z,53.90
2019-03-31T07:13:06.110Z,54.00
2019-03-31T07:15:38.387Z,54.00
2019-03-31T07:18:10.205Z,54.20
2019-03-31T07:20:40.690Z,54.80
2019-03-31T07:23:14.117Z,55.00
2019-03-31T07:25:46.034Z,55.20
2019-03-31T07:28:17.981Z,55.20
2019-03-31T07:30:50.249Z,55.00
2019-03-31T07:33:22.548Z,55.30
2019-03-31T07:35:54.806Z,55.50
2019-03-31T07:38:38.392Z,55.20
2019-03-31T07:41:12.028Z,55.20
2019-03-31T07:43:35.382Z,56.20
2019-03-31T07:46:07.161Z,55.50
2019-03-31T07:48:38.316Z,55.60
2019-03-31T07:51:10.283Z,55.90
2019-03-31T07:53:42.472Z,55.60
2019-03-31T07:56:16.203Z,55.50
2019-03-31T07:58:48.259Z,55.50
2019-03-31T08:01:18.773Z,55.40
2019-03-31T08:03:50.520Z,55.30
2019-03-31T08:06:21.273Z,56.30
2019-03-31T08:08:54.489Z,56.60
2019-03-31T08:11:26.273Z,56.50
2019-03-31T08:13:57.104Z,56.20
2019-03-31T08:16:29.194Z,56.80
2019-03-31T08:19:01.505Z,56.20
2019-03-31T08:21:33.997Z,56.00
2019-03-31T08:24:06.912Z,56.50
2019-03-31T08:26:39.479Z,56.60
2019-03-31T08:29:11.447Z,56.20
2019-03-31T08:31:43.641Z,56.10
2019-03-31T08:34:15.867Z,56.40
2019-03-31T08:36:48.389Z,56.10
2019-03-31T08:39:21.679Z,56.20
2019-03-31T08:41:54.075Z,56.10
2019-03-31T08:44:25.868Z,56.20
2019-03-31T08:46:56.333Z,56.10
2019-03-31T08:49:29.160Z,56.50
2019-03-31T08:52:00.958Z,56.10
2019-03-31T08:54:32.878Z,55.90
2019-03-31T08:57:05.338Z,55.80
2019-03-31T08:59:37.714Z,55.90
2019-03-31T09:02:33.701Z,55.90
2019-03-31T09:05:07.510Z,56.00
2019-03-31T09:07:41.887Z,55.90
2019-03-31T09:10:13.933Z,55.80
2019-03-31T09:12:48.421Z,56.50
2019-03-31T09:15:19.540Z,55.90
2019-03-31T09:17:49.978Z,56.30
2019-03-31T09:20:22.615Z,56.10
2019-03-31T09:22:54.501Z,55.90
2019-03-31T09:25:25.387Z,56.00
2019-03-31T09:27:57.517Z,56.10
2019-03-31T09:30:30.030Z,56.10
2019-03-31T09:33:01.935Z,56.10
2019-03-31T09:35:34.272Z,56.20
2019-03-31T09:38:06.999Z,56.70
2019-03-31T09:40:39.556Z,56.10
2019-03-31T09:43:12.291Z,56.10
2019-03-31T09:45:44.174Z,56.30
2019-03-31T09:48:16.186Z,56.10
2019-03-31T09:50:46.692Z,56.00
2019-03-31T09:53:19.282Z,55.90
2019-03-31T09:55:51.867Z,55.80
2019-03-31T09:58:24.598Z,55.60
2019-03-31T10:00:56.754Z,55.60
2019-03-31T10:03:29.341Z,55.60
2019-03-31T10:06:10.602Z,55.40
2019-03-31T10:08:35.385Z,55.40
2019-03-31T10:11:08.895Z,55.30
2019-03-31T10:13:41.805Z,54.90
2019-03-31T10:16:15.223Z,55.10
2019-03-31T10:18:49.186Z,55.40
2019-03-31T10:21:24.036Z,55.20
2019-03-31T10:23:56.989Z,55.10
2019-03-31T10:26:32.524Z,55.40
2019-03-31T10:29:06.748Z,55.20
2019-03-31T10:31:38.721Z,55.00
2019-03-31T10:34:10.635Z,55.00
2019-03-31T10:36:44.866Z,55.20
2019-03-31T10:39:14.757Z,55.20
2019-03-31T10:41:46.702Z,55.20
2019-03-31T10:44:19.034Z,55.30
2019-03-31T10:46:51.231Z,55.20
2019-03-31T10:49:23.631Z,55.00
2019-03-31T10:51:55.394Z,54.90
2019-03-31T10:54:26.198Z,54.70
2019-03-31T10:56:59.197Z,54.30
2019-03-31T10:59:31.998Z,54.50
2019-03-31T11:02:03.870Z,54.50
2019-03-31T11:04:34.286Z,54.50
2019-03-31T11:07:06.603Z,54.60
2019-03-31T11:09:38.490Z,54.50
2019-03-31T11:12:09.438Z,54.50
2019-03-31T11:14:41.833Z,54.70
2019-03-31T11:17:14.334Z,54.30
2019-03-31T11:19:46.128Z,54.50
2019-03-31T11:22:26.226Z,54.20
2019-03-31T11:24:57.819Z,54.20
2019-03-31T11:27:28.325Z,54.00
2019-03-31T11:30:00.364Z,53.20
2019-03-31T11:32:32.270Z,53.10
2019-03-31T11:35:02.896Z,53.30
2019-03-31T11:37:34.867Z,53.60
2019-03-31T11:40:08.937Z,53.80
2019-03-31T11:42:40.715Z,53.90
2019-03-31T11:45:11.278Z,53.70
2019-03-31T11:47:43.122Z,53.70
2019-03-31T11:50:16.706Z,53.50
2019-03-31T11:52:50.918Z,53.00
2019-03-31T11:55:22.792Z,52.40
2019-03-31T11:57:53.196Z,51.80
2019-03-31T12:00:26.377Z,52.90
2019-03-31T12:02:58.995Z,53.00
2019-03-31T12:05:31.579Z,53.40
2019-03-31T12:08:04.042Z,53.50
2019-03-31T12:10:36.687Z,53.70
2019-03-31T12:13:08.893Z,53.30
2019-03-31T12:15:40.794Z,53.40
2019-03-31T12:18:11.302Z,53.20
2019-03-31T12:20:43.144Z,53.30
2019-03-31T12:23:15.896Z,53.30
2019-03-31T12:25:48.136Z,53.00
2019-03-31T12:28:20.615Z,53.30
2019-03-31T12:30:52.456Z,53.60
2019-03-31T12:33:23.921Z,53.60
2019-03-31T12:35:55.619Z,53.60
2019-03-31T12:38:27.961Z,53.60
2019-03-31T12:41:00.078Z,53.30
2019-03-31T12:43:33.463Z,53.00
2019-03-31T12:46:05.912Z,53.00
2019-03-31T12:48:38.063Z,53.50
2019-03-31T12:51:10.540Z,53.60
2019-03-31T12:53:42.734Z,53.40
2019-03-31T12:56:14.782Z,53.30
2019-03-31T12:58:47.838Z,53.20
2019-03-31T13:01:21.044Z,53.60
2019-03-31T13:03:53.835Z,53.50
2019-03-31T13:06:25.633Z,53.60
2019-03-31T13:08:56.161Z,53.80
2019-03-31T13:11:28.986Z,53.80
2019-03-31T13:14:01.394Z,53.90
2019-03-31T13:16:33.500Z,53.80
2019-03-31T13:19:05.389Z,53.90
2019-03-31T13:21:37.747Z,53.70
2019-03-31T13:24:09.612Z,53.90
2019-03-31T13:26:40.156Z,53.90
2019-03-31T13:29:13.128Z,53.80
2019-03-31T13:31:46.256Z,53.30
2019-03-31T13:34:18.587Z,53.60
2019-03-31T13:36:50.627Z,53.40
2019-03-31T13:39:22.378Z,52.80
2019-03-31T13:41:54.602Z,52.10
2019-03-31T13:44:26.367Z,52.60
2019-03-31T13:46:56.825Z,53.10
2019-03-31T13:49:28.659Z,53.10
2019-03-31T13:52:00.742Z,53.30
2019-03-31T13:54:32.558Z,53.30
2019-03-31T13:57:04.119Z,53.00
2019-03-31T13:59:36.521Z,52.80
2019-03-31T14:02:08.598Z,53.30
2019-03-31T14:04:51.576Z,53.20
2019-03-31T14:07:14.467Z,53.20
2019-03-31T14:09:45.397Z,53.00
2019-03-31T14:12:17.221Z,52.70
2019-03-31T14:14:49.881Z,52.40
2019-03-31T14:17:24.461Z,53.00
2019-03-31T14:19:56.125Z,53.10
2019-03-31T14:22:26.543Z,53.00
2019-03-31T14:24:59.785Z,52.70
2019-03-31T14:27:31.699Z,52.90
2019-03-31T14:30:02.855Z,53.00
2019-03-31T14:32:34.832Z,52.80
2019-03-31T14:35:08.024Z,53.00
2019-03-31T14:37:39.808Z,52.80
2019-03-31T14:40:10.263Z,52.80
2019-03-31T14:42:42.368Z,53.00
2019-03-31T14:45:30.042Z,53.50
2019-03-31T14:48:07.044Z,53.30
2019-03-31T14:50:40.673Z,53.30
2019-03-31T14:53:13.064Z,53.20
2019-03-31T14:55:44.948Z,52.80
2019-03-31T14:58:20.721Z,53.20
2019-03-31T15:00:54.492Z,53.50
2019-03-31T15:03:27.889Z,53.00
2019-03-31T15:06:00.485Z,52.70
2019-03-31T15:08:32.368Z,52.70
2019-03-31T15:11:04.203Z,52.50
2019-03-31T15:13:36.621Z,52.70
2019-03-31T15:16:08.724Z,52.80
2019-03-31T15:18:41.528Z,52.70
2019-03-31T15:21:13.672Z,53.00
2019-03-31T15:23:46.640Z,53.20
2019-03-31T15:26:19.969Z,53.70
2019-03-31T15:28:52.226Z,53.50
2019-03-31T15:31:26.424Z,53.30
2019-03-31T15:33:59.452Z,53.10
2019-03-31T15:36:31.251Z,53.30
2019-03-31T15:39:08.790Z,53.50
2019-03-31T15:41:36.386Z,53.60
2019-03-31T15:44:08.322Z,53.50
2019-03-31T15:46:41.467Z,53.60
2019-03-31T15:49:13.394Z,53.90
2019-03-31T15:51:45.251Z,54.00
2019-03-31T15:54:22.198Z,54.30
2019-03-31T15:56:57.787Z,54.20
2019-03-31T15:59:29.682Z,53.80
2019-03-31T16:02:02.263Z,53.40
2019-03-31T16:04:34.512Z,53.60
2019-03-31T16:07:07.155Z,53.60
2019-03-31T16:09:38.424Z,53.80
2019-03-31T16:12:10.378Z,53.80
2019-03-31T16:14:41.931Z,54.00
2019-03-31T16:17:13.517Z,54.70
2019-03-31T16:19:45.382Z,54.10
2019-03-31T16:22:17.009Z,54.00
2019-03-31T16:24:50.567Z,53.70
2019-03-31T16:27:22.664Z,53.90
2019-03-31T16:29:54.507Z,53.50
2019-03-31T16:32:24.859Z,53.40
2019-03-31T16:34:56.568Z,53.60
2019-03-31T16:37:28.275Z,53.50
2019-03-31T16:40:00.398Z,53.60
2019-03-31T16:42:31.900Z,53.50
2019-03-31T16:45:03.284Z,53.90
2019-03-31T16:47:35.015Z,53.60
2019-03-31T16:50:06.838Z,53.60
2019-03-31T16:52:37.097Z,53.50
2019-03-31T16:55:09.251Z,53.70
2019-03-31T16:57:40.898Z,53.60
2019-03-31T17:00:12.854Z,53.80
2019-03-31T17:02:44.215Z,53.60
2019-03-31T17:05:22.004Z,53.60
2019-03-31T17:07:48.741Z,53.80
2019-03-31T17:10:19.955Z,53.90
2019-03-31T17:12:52.165Z,54.10
2019-03-31T17:15:23.527Z,54.20
2019-03-31T17:17:54.923Z,54.20
2019-03-31T17:20:26.507Z,54.40
2019-03-31T17:22:57.979Z,54.50
2019-03-31T17:25:30.338Z,54.60
2019-03-31T17:28:02.321Z,54.50
2019-03-31T17:30:33.674Z,54.50
2019-03-31T17:33:05.294Z,54.40
2019-03-31T17:35:36.883Z,54.50
2019-03-31T17:38:08.159Z,54.70
2019-03-31T17:40:39.724Z,54.50
2019-03-31T17:43:10.955Z,54.50
2019-03-31T17:45:42.858Z,54.70
2019-03-31T17:48:13.919Z,54.80
2019-03-31T17:50:45.802Z,54.90
2019-03-31T17:53:17.136Z,54.90
2019-03-31T17:55:49.107Z,54.80
2019-03-31T17:58:20.758Z,55.00
2019-03-31T18:00:52.171Z,54.90
2019-03-31T18:03:24.096Z,55.30
2019-03-31T18:05:55.395Z,55.20
2019-03-31T18:08:26.696Z,55.40
2019-03-31T18:10:58.350Z,55.20
2019-03-31T18:13:30.019Z,55.00
2019-03-31T18:16:01.643Z,55.20
2019-03-31T18:18:33.400Z,55.30
2019-03-31T18:21:05.253Z,55.10
2019-03-31T18:23:35.804Z,54.90
2019-03-31T18:26:07.204Z,54.80
2019-03-31T18:28:38.586Z,55.10
2019-03-31T18:31:09.849Z,55.00
2019-03-31T18:33:41.196Z,55.00
2019-03-31T18:36:13.202Z,54.60
2019-03-31T18:38:44.553Z,54.70
2019-03-31T18:41:15.882Z,54.70
2019-03-31T18:43:51.574Z,55.20
2019-03-31T18:46:23.822Z,54.60
2019-03-31T18:48:55.554Z,54.70
2019-03-31T18:51:27.387Z,54.70
2019-03-31T18:54:20.453Z,54.60
2019-03-31T18:56:58.247Z,55.00
2019-03-31T18:59:41.441Z,54.90
2019-03-31T19:02:31.612Z,54.50
2019-03-31T19:05:24.531Z,54.90
2019-03-31T19:08:17.839Z,54.70
2019-03-31T19:11:14.886Z,55.00
2019-03-31T19:14:05.366Z,54.90
2019-03-31T19:16:54.464Z,54.80
2019-03-31T19:19:54.107Z,55.30
2019-03-31T19:22:47.688Z,55.30
2019-03-31T19:25:28.565Z,55.10
2019-03-31T19:28:27.952Z,54.80
2019-03-31T19:31:24.301Z,54.80
2019-03-31T19:34:18.864Z,55.10
2019-03-31T19:37:14.855Z,55.10
2019-03-31T19:40:05.514Z,55.00
2019-03-31T19:42:59.943Z,55.00
2019-03-31T19:45:48.979Z,55.00
2019-03-31T19:48:48.766Z,55.20
2019-03-31T19:51:32.297Z,55.60
2019-03-31T19:54:15.824Z,55.30
2019-03-31T19:57:24.966Z,55.40
2019-03-31T20:00:19.038Z,55.30
2019-03-31T20:03:00.996Z,55.80
2019-03-31T20:05:48.091Z,55.60
2019-03-31T20:08:50.449Z,55.40
2019-03-31T20:11:36.435Z,56.00
2019-03-31T20:14:30.123Z,56.30
2019-03-31T20:17:24.922Z,56.30
2019-03-31T20:20:24.054Z,56.00
2019-03-31T20:23:25.627Z,55.70
2019-03-31T20:26:14.918Z,55.70
2019-03-31T20:29:05.601Z,56.30
2019-03-31T20:31:56.011Z,55.70
2019-03-31T20:34:44.998Z,55.00
2019-03-31T20:37:27.055Z,55.00
2019-03-31T20:40:16.203Z,54.50
2019-03-31T20:43:03.613Z,54.00
2019-03-31T20:45:35.034Z,53.50
2019-03-31T20:48:06.285Z,53.10
2019-03-31T20:50:37.611Z,53.20
2019-03-31T20:53:09.223Z,53.10
2019-03-31T20:55:40.877Z,53.00
2019-03-31T20:58:12.450Z,52.90
2019-03-31T21:00:43.733Z,53.00
2019-03-31T21:03:15.421Z,52.90
2019-03-31T21:05:46.743Z,52.80
2019-03-31T21:08:17.998Z,52.60
2019-03-31T21:10:49.716Z,52.70
2019-03-31T21:13:21.068Z,52.70
2019-03-31T21:15:53.249Z,52.60
2019-03-31T21:18:24.500Z,52.50
2019-03-31T21:20:55.857Z,52.80
2019-03-31T21:23:28.515Z,52.40
2019-03-31T21:26:00.894Z,52.40
2019-03-31T21:28:32.606Z,52.30
2019-03-31T21:31:04.242Z,52.40
2019-03-31T21:33:35.793Z,52.60
2019-03-31T21:36:07.623Z,53.00
2019-03-31T21:38:39.711Z,52.90
2019-03-31T21:41:14.020Z,53.00
2019-03-31T21:43:43.858Z,53.00
2019-03-31T21:46:15.186Z,53.50
2019-03-31T21:48:46.509Z,53.90
2019-03-31T21:51:18.141Z,54.20
2019-03-31T21:53:49.417Z,54.20
2019-03-31T21:56:20.648Z,54.40
2019-03-31T21:58:52.023Z,55.00
2019-03-31T22:01:23.315Z,55.20
2019-03-31T22:03:54.627Z,54.90
2019-03-31T22:06:25.888Z,54.80
2019-03-31T22:08:57.642Z,54.90
2019-03-31T22:11:29.289Z,54.60
2019-03-31T22:14:00.514Z,54.60
2019-03-31T22:16:31.887Z,54.70
2019-03-31T22:19:03.102Z,54.40
2019-03-31T22:21:34.687Z,54.00
2019-03-31T22:24:06.020Z,53.80
2019-03-31T22:26:37.786Z,54.40
2019-03-31T22:29:09.808Z,54.60
2019-03-31T22:31:41.060Z,54.30
2019-03-31T22:34:23.799Z,54.30
2019-03-31T22:36:56.667Z,53.90
2019-03-31T22:39:26.846Z,54.30
2019-03-31T22:41:58.354Z,54.20
2019-03-31T22:44:30.626Z,54.20
2019-03-31T22:47:02.679Z,54.20
2019-03-31T22:49:33.919Z,54.40
2019-03-31T22:52:05.149Z,54.40
2019-03-31T22:54:36.345Z,54.60
2019-03-31T22:57:07.838Z,54.40
2019-03-31T22:59:39.081Z,54.60
2019-03-31T23:02:10.404Z,54.50
2019-03-31T23:04:41.696Z,54.20
2019-03-31T23:07:13.816Z,55.20
2019-03-31T23:09:45.465Z,54.40
2019-03-31T23:12:17.166Z,54.40
2019-03-31T23:14:48.702Z,54.40
2019-03-31T23:17:20.063Z,54.50
2019-03-31T23:19:52.313Z,55.00
2019-03-31T23:22:23.838Z,54.70
2019-03-31T23:24:55.115Z,54.50
2019-03-31T23:27:26.734Z,54.30
2019-03-31T23:29:58.056Z,55.00
2019-03-31T23:32:29.864Z,55.00
2019-03-31T23:35:01.591Z,54.60
2019-03-31T23:37:32.921Z,54.60
2019-03-31T23:40:04.780Z,54.20
2019-03-31T23:42:36.107Z,54.60
2019-03-31T23:45:07.697Z,54.70
2019-03-31T23:47:39.194Z,55.00
2019-03-31T23:50:13.301Z,54.40
2019-03-31T23:52:44.959Z,55.00
2019-03-31T23:55:16.253Z,54.20
2019-03-31T23:57:47.479Z,54.50
